Time;durP1;ratioP1;P1;durP2;ratioP2;P2;SDS_P1;SDS_P2;PMS_P1;PMS_P2;Temp;Humidity;BMP_temperature;BMP_pressure;BME280_temperature;BME280_humidity;BME280_pressure;Samples;Min_cycle;Max_cycle;Signal;HPM_P1;HPM_P2
2023/04/30 00:01:41;;;;;;;0.80;0.80;;;18.00;85.70;;;;;;4985146;28;20030;-81
2023/04/30 00:04:06;;;;;;;0.80;0.80;;;18.10;85.80;;;;;;4997942;28;20053;-80
2023/04/30 00:06:32;;;;;;;1.05;1.05;;;18.00;85.80;;;;;;4996026;28;20433;-81
2023/04/30 00:08:58;;;;;;;0.70;0.70;;;18.00;85.80;;;;;;4999879;28;20045;-81
2023/04/30 00:11:24;;;;;;;0.70;0.70;;;18.00;85.80;;;;;;4983641;28;20046;-80
2023/04/30 00:13:50;;;;;;;0.70;0.70;;;18.00;85.90;;;;;;4986196;28;20046;-80
2023/04/30 00:16:16;;;;;;;0.90;0.90;;;18.00;85.90;;;;;;4980030;28;20072;-81
2023/04/30 00:18:42;;;;;;;0.70;0.70;;;18.00;85.90;;;;;;4983430;28;20563;-80
2023/04/30 00:21:08;;;;;;;0.90;0.90;;;18.00;85.90;;;;;;4985379;28;20031;-81
2023/04/30 00:23:33;;;;;;;0.90;0.90;;;18.00;85.90;;;;;;4987584;28;20033;-81
2023/04/30 00:25:59;;;;;;;1.00;1.00;;;18.00;85.90;;;;;;5005587;28;20083;-81
2023/04/30 00:28:24;;;;;;;1.10;1.10;;;18.00;85.80;;;;;;5003761;28;20041;-80
2023/04/30 00:30:50;;;;;;;1.10;1.10;;;18.00;85.70;;;;;;4997020;28;20116;-80
2023/04/30 00:33:15;;;;;;;1.17;0.98;;;18.00;85.70;;;;;;4983746;28;20508;-80
2023/04/30 00:35:41;;;;;;;0.80;0.80;;;18.00;85.90;;;;;;4985099;28;20038;-80
2023/04/30 00:38:07;;;;;;;1.00;1.00;;;18.00;85.80;;;;;;4981316;28;20100;-80
2023/04/30 00:40:36;;;;;;;1.00;1.00;;;18.00;85.80;;;;;;4985743;28;20027;-80
2023/04/30 00:43:01;;;;;;;0.80;0.80;;;18.00;85.90;;;;;;4976892;28;20046;-80
2023/04/30 00:45:27;;;;;;;1.10;1.10;;;18.00;85.90;;;;;;4981032;28;20098;-81
2023/04/30 00:47:53;;;;;;;1.13;1.13;;;18.00;85.90;;;;;;4983136;28;20050;-80
2023/04/30 00:50:18;;;;;;;1.13;1.13;;;18.00;85.90;;;;;;4982606;28;20037;-81
2023/04/30 00:52:44;;;;;;;0.85;0.85;;;18.00;86.00;;;;;;4999922;28;20043;-81
2023/04/30 00:55:12;;;;;;;0.82;0.82;;;18.00;86.00;;;;;;4982536;28;20046;-80
2023/04/30 00:57:39;;;;;;;0.95;0.95;;;18.00;86.00;;;;;;4982999;28;20041;-80
2023/04/30 01:00:06;;;;;;;1.00;1.00;;;18.00;86.00;;;;;;4995495;28;20088;-81
2023/04/30 01:02:31;;;;;;;1.00;1.00;;;18.00;86.00;;;;;;5001336;28;20538;-81
2023/04/30 01:04:57;;;;;;;0.90;0.90;;;18.00;86.00;;;;;;4971686;28;20038;-80
2023/04/30 01:07:24;;;;;;;0.98;0.98;;;18.00;86.00;;;;;;4953767;28;20064;-81
2023/04/30 01:09:49;;;;;;;1.10;1.10;;;18.00;86.00;;;;;;4966487;28;20509;-81
2023/04/30 01:12:32;;;;;;;0.80;0.80;;;18.00;86.00;;;;;;4978516;28;20067;-80
2023/04/30 01:15:38;;;;;;;0.98;0.98;;;17.90;86.00;;;;;;4961451;28;20043;-80
2023/04/30 01:18:12;;;;;;;1.00;1.00;;;17.90;86.00;;;;;;4996276;28;20047;-80
2023/04/30 01:20:38;;;;;;;;;;;17.90;85.90;;;;;;4964899;28;20521;-80
2023/04/30 01:23:22;;;;;;;1.05;1.05;;;17.90;85.90;;;;;;4959243;28;19919;-80
2023/04/30 01:26:08;;;;;;;1.00;1.00;;;17.90;85.90;;;;;;4960746;28;20027;-80
2023/04/30 01:28:35;;;;;;;1.30;1.30;;;18.00;85.90;;;;;;4962917;28;20047;-80
2023/04/30 01:31:00;;;;;;;0.90;0.90;;;17.90;85.80;;;;;;4966005;28;20062;-81
2023/04/30 01:33:26;;;;;;;1.10;1.10;;;17.90;85.80;;;;;;4959260;28;20070;-80
2023/04/30 01:36:12;;;;;;;1.05;1.05;;;17.90;85.80;;;;;;4962335;28;20061;-81
2023/04/30 01:39:02;;;;;;;1.05;1.05;;;17.90;85.80;;;;;;4978157;28;20049;-80
2023/04/30 01:41:48;;;;;;;1.00;1.00;;;18.00;85.90;;;;;;4961579;28;20054;-80
2023/04/30 01:44:20;;;;;;;0.95;0.95;;;17.90;85.80;;;;;;4949824;28;20039;-80
2023/04/30 01:46:49;;;;;;;0.90;0.90;;;17.90;85.80;;;;;;4968531;28;20513;-81
2023/04/30 01:49:17;;;;;;;1.10;1.10;;;17.90;85.80;;;;;;4953167;28;20047;-80
2023/04/30 01:51:45;;;;;;;1.48;1.48;;;17.90;85.90;;;;;;4963961;28;20046;-80
2023/04/30 01:54:37;;;;;;;1.40;1.40;;;17.90;85.80;;;;;;4966975;28;20046;-80
2023/04/30 01:57:06;;;;;;;1.10;1.10;;;17.90;85.90;;;;;;4985754;28;20109;-80
2023/04/30 01:59:33;;;;;;;1.42;1.33;;;17.90;85.90;;;;;;4967201;28;20061;-80
2023/04/30 02:01:59;;;;;;;0.93;0.93;;;17.90;85.90;;;;;;4955583;28;20066;-80
2023/04/30 02:04:25;;;;;;;1.20;1.20;;;17.90;85.90;;;;;;4979997;28;20069;-81
2023/04/30 02:06:50;;;;;;;1.10;1.10;;;17.90;85.80;;;;;;4986800;28;20565;-80
2023/04/30 02:09:16;;;;;;;1.13;1.13;;;17.90;85.80;;;;;;4972004;28;20046;-80
2023/04/30 02:11:41;;;;;;;1.17;1.17;;;17.90;85.90;;;;;;4987366;28;20038;-80
2023/04/30 02:14:07;;;;;;;1.30;1.30;;;17.90;85.80;;;;;;4986297;28;20073;-80
2023/04/30 02:16:33;;;;;;;1.10;1.10;;;17.90;85.90;;;;;;4985794;28;20089;-80
2023/04/30 02:18:58;;;;;;;0.90;0.90;;;17.90;86.70;;;;;;4986055;28;20050;-80
2023/04/30 02:21:24;;;;;;;0.95;0.95;;;17.90;85.90;;;;;;4987203;28;20046;-81
2023/04/30 02:23:49;;;;;;;1.10;1.10;;;17.90;85.90;;;;;;4987468;28;20593;-80
2023/04/30 02:26:15;;;;;;;0.98;0.98;;;17.90;85.80;;;;;;4985813;28;20049;-81
2023/04/30 02:28:41;;;;;;;0.90;0.90;;;17.90;85.80;;;;;;4987095;28;20036;-80
2023/04/30 02:31:06;;;;;;;0.82;0.82;;;17.90;85.90;;;;;;4986253;28;20126;-80
2023/04/30 02:33:32;;;;;;;1.20;1.20;;;17.90;85.90;;;;;;4987171;28;20133;-81
2023/04/30 02:35:59;;;;;;;1.17;1.17;;;17.90;85.90;;;;;;4987919;28;20042;-81
2023/04/30 02:38:24;;;;;;;1.00;1.00;;;17.90;85.90;;;;;;4984275;28;20117;-80
2023/04/30 02:40:50;;;;;;;1.25;1.25;;;17.90;85.90;;;;;;4987797;28;20121;-81
2023/04/30 02:43:15;;;;;;;1.10;1.10;;;17.90;85.90;;;;;;4986287;28;20054;-80
2023/04/30 02:45:41;;;;;;;0.90;0.90;;;17.90;85.90;;;;;;4986398;28;20041;-80
2023/04/30 02:48:07;;;;;;;1.02;1.02;;;17.90;85.90;;;;;;4988206;28;20038;-81
2023/04/30 02:50:32;;;;;;;1.10;1.10;;;17.90;85.90;;;;;;4996301;28;20041;-81
2023/04/30 02:52:58;;;;;;;1.00;1.00;;;17.80;85.90;;;;;;5006778;28;20046;-80
2023/04/30 02:55:24;;;;;;;1.05;1.05;;;17.90;85.90;;;;;;4988997;28;20125;-81
2023/04/30 02:57:49;;;;;;;1.00;1.00;;;17.90;85.90;;;;;;4986352;28;20137;-81
2023/04/30 03:00:16;;;;;;;1.02;1.02;;;17.90;85.90;;;;;;4983963;28;20042;-80
2023/04/30 03:02:42;;;;;;;1.30;1.30;;;17.80;85.80;;;;;;4988597;28;20066;-80
2023/04/30 03:05:07;;;;;;;1.00;1.00;;;17.80;85.90;;;;;;4986657;28;20509;-80
2023/04/30 03:07:33;;;;;;;1.20;1.20;;;17.80;85.90;;;;;;4984444;28;20056;-80
2023/04/30 03:09:58;;;;;;;1.08;1.08;;;17.80;85.90;;;;;;4988047;28;20504;-80
2023/04/30 03:12:24;;;;;;;1.17;1.13;;;17.80;85.90;;;;;;4986301;28;20046;-81
2023/04/30 03:14:51;;;;;;;1.00;1.00;;;17.80;85.90;;;;;;5017607;28;20046;-80
2023/04/30 03:17:16;;;;;;;1.00;1.00;;;17.80;85.90;;;;;;4987445;28;20495;-81
2023/04/30 03:19:42;;;;;;;1.02;1.02;;;17.80;85.90;;;;;;4993033;28;20049;-80
2023/04/30 03:22:07;;;;;;;0.90;0.90;;;17.80;85.90;;;;;;4997636;28;20408;-80
2023/04/30 03:24:33;;;;;;;1.05;1.05;;;17.80;85.80;;;;;;4985435;28;20046;-80
2023/04/30 03:26:58;;;;;;;0.85;0.85;;;17.80;85.80;;;;;;4986683;28;20161;-80
2023/04/30 03:29:24;;;;;;;1.00;1.00;;;17.80;85.80;;;;;;4985554;28;20566;-81
2023/04/30 03:31:50;;;;;;;1.20;1.20;;;17.80;85.70;;;;;;4999437;28;20050;-81
2023/04/30 03:34:15;;;;;;;1.15;1.15;;;17.80;85.80;;;;;;5003040;28;20522;-81
2023/04/30 03:36:41;;;;;;;1.00;1.00;;;17.80;85.90;;;;;;5003453;28;20053;-80
2023/04/30 03:39:08;;;;;;;1.05;1.05;;;17.80;85.80;;;;;;5005337;28;20041;-80
2023/04/30 03:41:34;;;;;;;1.10;1.10;;;17.80;85.80;;;;;;4994163;28;20394;-80
2023/04/30 03:43:59;;;;;;;0.80;0.80;;;17.80;85.80;;;;;;4966687;28;20053;-80
2023/04/30 03:46:25;;;;;;;1.20;1.20;;;17.80;85.80;;;;;;4986448;28;20157;-80
2023/04/30 03:48:50;;;;;;;1.08;1.08;;;17.80;85.90;;;;;;4971268;28;20066;-80
2023/04/30 03:51:18;;;;;;;1.08;1.00;;;17.80;85.90;;;;;;4971282;28;20039;-80
2023/04/30 03:53:43;;;;;;;1.10;1.10;;;17.80;85.90;;;;;;4989756;28;20113;-80
2023/04/30 03:56:09;;;;;;;0.90;0.90;;;17.80;85.90;;;;;;4988889;28;20180;-81
2023/04/30 03:58:35;;;;;;;1.08;1.08;;;17.80;85.90;;;;;;5004138;28;20041;-80
2023/04/30 04:01:00;;;;;;;1.23;1.20;;;17.80;85.90;;;;;;5005553;28;20045;-81
2023/04/30 04:03:26;;;;;;;1.00;1.00;;;17.80;86.70;;;;;;4992873;28;20065;-80
2023/04/30 04:05:51;;;;;;;1.10;1.10;;;17.70;85.70;;;;;;5000655;28;20030;-80
2023/04/30 04:08:17;;;;;;;1.05;1.05;;;17.80;85.90;;;;;;4990784;28;20447;-81
2023/04/30 04:10:43;;;;;;;1.00;1.00;;;17.70;85.80;;;;;;5010887;28;20042;-81
2023/04/30 04:13:08;;;;;;;1.20;1.20;;;17.80;85.90;;;;;;4984455;28;20619;-80
2023/04/30 04:15:34;;;;;;;0.82;0.82;;;17.80;85.90;;;;;;4993578;28;20526;-80
2023/04/30 04:17:59;;;;;;;1.20;1.20;;;17.80;85.90;;;;;;4994057;28;20046;-81
2023/04/30 04:20:26;;;;;;;1.20;1.20;;;17.70;85.80;;;;;;4985197;28;20042;-81
2023/04/30 04:22:51;;;;;;;0.88;0.88;;;17.70;85.80;;;;;;4981729;28;20042;-80
2023/04/30 04:25:17;;;;;;;1.20;1.20;;;17.80;85.80;;;;;;4985977;28;20041;-80
2023/04/30 04:27:43;;;;;;;0.93;0.93;;;17.80;85.90;;;;;;4996151;28;20042;-81
2023/04/30 04:30:09;;;;;;;1.08;1.08;;;17.70;85.80;;;;;;4997818;28;20039;-80
2023/04/30 04:32:40;;;;;;;1.17;1.17;;;17.70;85.80;;;;;;4997064;28;20068;-81
2023/04/30 04:35:06;;;;;;;1.10;1.10;;;17.80;85.90;;;;;;5003666;28;20042;-81
2023/04/30 04:37:33;;;;;;;0.98;0.98;;;17.70;85.80;;;;;;5006137;28;20102;-81
2023/04/30 04:39:59;;;;;;;1.30;1.30;;;17.70;85.80;;;;;;4996757;28;20122;-80
2023/04/30 04:42:24;;;;;;;1.15;1.15;;;17.80;85.90;;;;;;4986526;28;20118;-80
2023/04/30 04:44:50;;;;;;;1.20;1.20;;;17.70;85.80;;;;;;4986130;28;20133;-80
2023/04/30 04:47:18;;;;;;;1.27;1.27;;;17.80;85.90;;;;;;4986653;28;20035;-80
2023/04/30 04:49:44;;;;;;;1.10;1.10;;;17.70;85.80;;;;;;4985076;28;20484;-80
2023/04/30 04:52:09;;;;;;;2.45;1.27;;;17.70;85.80;;;;;;4985440;28;20037;-81
2023/04/30 04:54:35;;;;;;;1.42;1.42;;;17.70;85.80;;;;;;4984249;28;20054;-81
2023/04/30 04:57:01;;;;;;;1.30;1.20;;;17.70;85.80;;;;;;4986960;28;20038;-80
2023/04/30 04:59:27;;;;;;;1.30;1.30;;;17.70;85.80;;;;;;4967056;28;20060;-81
2023/04/30 05:01:53;;;;;;;0.93;0.93;;;17.70;85.80;;;;;;4975474;28;20054;-81
2023/04/30 05:04:18;;;;;;;1.30;1.30;;;17.70;85.80;;;;;;5005114;28;20092;-80
2023/04/30 05:06:45;;;;;;;1.13;1.13;;;17.70;85.80;;;;;;5007293;28;20045;-92
2023/04/30 05:09:10;;;;;;;1.35;1.33;;;17.70;85.80;;;;;;5019570;28;20417;-92
2023/04/30 05:11:36;;;;;;;1.05;1.05;;;17.70;85.80;;;;;;4996649;28;20044;-92
2023/04/30 05:14:02;;;;;;;1.00;1.00;;;17.70;85.80;;;;;;4996322;28;20053;-93
2023/04/30 05:16:27;;;;;;;1.20;1.20;;;17.70;85.70;;;;;;4984652;28;20488;-92
2023/04/30 05:18:53;;;;;;;1.23;1.00;;;17.70;85.80;;;;;;4984020;28;20042;-92
2023/04/30 05:21:18;;;;;;;1.27;1.27;;;17.70;85.80;;;;;;4984240;28;20047;-92
2023/04/30 05:23:44;;;;;;;1.25;1.25;;;17.70;85.80;;;;;;4984465;28;20505;-92
2023/04/30 05:26:10;;;;;;;1.00;1.00;;;17.70;85.80;;;;;;4990489;28;20046;-92
2023/04/30 05:28:35;;;;;;;1.05;1.05;;;17.70;85.70;;;;;;4988678;28;20654;-92
2023/04/30 05:31:01;;;;;;;1.27;1.27;;;17.80;85.70;;;;;;4991147;28;20050;-93
2023/04/30 05:33:26;;;;;;;1.08;1.08;;;17.80;85.70;;;;;;4991477;28;20140;-93
2023/04/30 05:35:52;;;;;;;1.00;1.00;;;17.70;85.70;;;;;;4990580;28;20522;-92
2023/04/30 05:38:17;;;;;;;0.93;0.93;;;17.70;85.60;;;;;;4997100;28;20033;-92
2023/04/30 05:40:43;;;;;;;0.80;0.80;;;17.70;85.70;;;;;;5010023;28;20041;-92
2023/04/30 05:43:08;;;;;;;0.98;0.98;;;17.70;85.70;;;;;;5004428;28;20392;-92
2023/04/30 05:45:34;;;;;;;1.10;1.10;;;17.70;85.70;;;;;;4989566;28;20041;-92
2023/04/30 05:48:00;;;;;;;1.20;1.20;;;17.70;85.70;;;;;;4991121;28;20035;-92
2023/04/30 05:50:26;;;;;;;1.52;0.93;;;17.70;85.60;;;;;;4990180;28;20054;-90
2023/04/30 05:52:51;;;;;;;0.82;0.82;;;17.70;85.70;;;;;;4990804;28;20041;-93
2023/04/30 05:55:17;;;;;;;1.10;1.10;;;17.70;85.70;;;;;;4974568;28;20034;-92
2023/04/30 05:57:42;;;;;;;1.20;1.20;;;17.80;85.80;;;;;;4985557;28;20073;-93
2023/04/30 06:00:09;;;;;;;1.13;1.13;;;17.70;85.60;;;;;;4991992;28;20057;-93
2023/04/30 06:02:34;;;;;;;1.00;1.00;;;17.70;85.60;;;;;;4998081;28;20047;-92
2023/04/30 06:05:01;;;;;;;0.85;0.85;;;17.70;85.70;;;;;;5010540;28;20053;-93
2023/04/30 06:07:27;;;;;;;1.20;1.20;;;17.80;86.50;;;;;;5017241;28;20042;-91
2023/04/30 06:09:53;;;;;;;1.20;1.20;;;17.70;85.70;;;;;;4986325;28;20543;-92
2023/04/30 06:12:19;;;;;;;1.15;1.15;;;17.80;85.80;;;;;;4990521;28;20049;-92
2023/04/30 06:14:44;;;;;;;0.77;0.77;;;17.80;86.70;;;;;;4988277;28;20044;-93
2023/04/30 06:17:14;;;;;;;0.98;0.98;;;17.80;85.80;;;;;;5002832;28;20136;-92
2023/04/30 06:19:40;;;;;;;1.00;1.00;;;17.70;85.70;;;;;;5007022;28;20121;-92
2023/04/30 06:22:05;;;;;;;1.05;1.05;;;17.70;85.70;;;;;;4992723;28;20128;-92
2023/04/30 06:24:31;;;;;;;0.80;0.80;;;17.80;85.70;;;;;;5010936;28;20405;-93
2023/04/30 06:26:57;;;;;;;0.82;0.82;;;17.70;85.70;;;;;;4996753;28;20074;-92
2023/04/30 06:29:23;;;;;;;0.85;0.85;;;17.80;85.60;;;;;;4990138;28;20034;-93
2023/04/30 06:31:49;;;;;;;0.93;0.93;;;17.80;85.80;;;;;;4989500;28;20058;-93
2023/04/30 06:34:15;;;;;;;1.00;1.00;;;17.70;85.60;;;;;;4991130;28;20092;-93
2023/04/30 06:36:41;;;;;;;0.80;0.80;;;17.70;85.50;;;;;;4986757;28;20054;-92
2023/04/30 06:39:06;;;;;;;1.27;1.25;;;17.80;85.60;;;;;;4989587;28;20504;-92
2023/04/30 06:41:32;;;;;;;1.10;1.10;;;17.80;85.50;;;;;;4988411;28;20037;-93
2023/04/30 06:43:57;;;;;;;0.95;0.95;;;17.80;85.50;;;;;;4980764;28;20106;-93
2023/04/30 06:46:23;;;;;;;1.00;1.00;;;17.80;85.50;;;;;;5000414;28;20424;-93
2023/04/30 06:48:48;;;;;;;1.00;1.00;;;17.80;85.50;;;;;;4985689;28;20060;-93
2023/04/30 06:51:14;;;;;;;1.23;1.23;;;17.80;85.50;;;;;;4989200;28;20038;-93
2023/04/30 06:53:40;;;;;;;0.82;0.82;;;17.80;85.60;;;;;;4987556;28;20160;-92
2023/04/30 06:56:06;;;;;;;0.95;0.95;;;17.80;85.60;;;;;;4989631;28;20049;-93
2023/04/30 06:58:31;;;;;;;1.05;1.05;;;17.70;85.50;;;;;;4985204;28;20046;-92
2023/04/30 07:00:57;;;;;;;1.30;1.30;;;17.80;85.50;;;;;;4988515;28;20046;-92
2023/04/30 07:03:22;;;;;;;1.30;1.30;;;17.80;85.50;;;;;;4987141;28;20050;-92
2023/04/30 07:05:48;;;;;;;1.02;1.02;;;17.80;85.50;;;;;;4987241;28;20109;-91
2023/04/30 07:08:14;;;;;;;1.15;1.15;;;17.80;85.40;;;;;;4989645;28;20094;-92
2023/04/30 07:10:39;;;;;;;1.20;1.20;;;17.80;85.40;;;;;;4989050;28;20047;-92
2023/04/30 07:13:07;;;;;;;1.15;1.13;;;17.80;85.40;;;;;;4992906;28;20030;-92
2023/04/30 07:15:32;;;;;;;1.10;1.10;;;17.80;85.30;;;;;;4988080;28;20046;-93
2023/04/30 07:17:58;;;;;;;1.00;1.00;;;17.80;85.40;;;;;;4996088;28;20516;-92
2023/04/30 07:20:23;;;;;;;0.95;0.95;;;17.80;85.30;;;;;;4988554;28;20038;-92
2023/04/30 07:22:49;;;;;;;0.90;0.90;;;17.80;85.30;;;;;;4987682;28;20046;-92
2023/04/30 07:25:15;;;;;;;1.00;1.00;;;17.80;85.30;;;;;;4988652;28;20046;-93
2023/04/30 07:27:40;;;;;;;1.10;1.10;;;17.90;85.30;;;;;;4974528;28;20381;-92
2023/04/30 07:30:07;;;;;;;1.20;1.10;;;17.90;85.30;;;;;;4988594;28;20038;-92
2023/04/30 07:32:34;;;;;;;1.00;1.00;;;17.90;85.30;;;;;;4958174;28;20050;-91
2023/04/30 07:35:00;;;;;;;0.90;0.90;;;17.90;85.30;;;;;;5014105;28;20042;-92
2023/04/30 07:37:25;;;;;;;0.90;0.90;;;17.90;85.30;;;;;;4992548;28;20046;-93
2023/04/30 07:39:51;;;;;;;1.17;1.17;;;17.90;85.40;;;;;;4988358;28;20034;-92
2023/04/30 07:42:17;;;;;;;1.10;1.10;;;17.90;85.40;;;;;;4990087;28;20504;-92
2023/04/30 07:44:42;;;;;;;1.00;1.00;;;17.90;85.40;;;;;;4987593;28;20057;-92
2023/04/30 07:47:08;;;;;;;1.00;1.00;;;17.90;85.40;;;;;;4971384;28;20534;-92
2023/04/30 07:49:34;;;;;;;1.30;1.30;;;17.90;85.40;;;;;;4988014;28;20393;-91
2023/04/30 07:52:00;;;;;;;0.90;0.90;;;17.90;85.30;;;;;;4986652;28;20046;-92
2023/04/30 07:54:26;;;;;;;0.93;0.93;;;17.90;85.20;;;;;;4989461;28;20050;-92
2023/04/30 07:56:52;;;;;;;1.10;1.10;;;18.00;85.20;;;;;;4988180;28;20042;-92
2023/04/30 07:59:17;;;;;;;1.08;1.08;;;18.00;85.20;;;;;;4989839;28;20077;-92
2023/04/30 08:01:43;;;;;;;0.93;0.93;;;18.00;85.20;;;;;;4986892;28;20056;-92
2023/04/30 08:04:09;;;;;;;1.27;1.27;;;18.00;85.10;;;;;;4988359;28;20046;-92
2023/04/30 08:06:34;;;;;;;1.20;1.20;;;18.00;85.10;;;;;;4989119;28;20444;-90
2023/04/30 08:09:00;;;;;;;1.10;1.10;;;18.00;85.00;;;;;;4988552;28;20077;-92
2023/04/30 08:11:26;;;;;;;1.02;1.02;;;18.00;84.80;;;;;;4986679;28;20073;-92
2023/04/30 08:13:51;;;;;;;1.20;1.20;;;18.10;85.00;;;;;;4997769;28;20049;-92
2023/04/30 08:16:17;;;;;;;1.10;1.10;;;18.10;84.90;;;;;;4998840;28;20415;-92
2023/04/30 08:18:45;;;;;;;1.20;1.20;;;18.10;84.80;;;;;;5007874;28;20116;-92
2023/04/30 08:21:13;;;;;;;1.00;1.00;;;18.10;84.70;;;;;;5009358;28;20077;-92
2023/04/30 08:23:39;;;;;;;1.00;1.00;;;18.10;84.60;;;;;;5003666;28;20046;-92
2023/04/30 08:26:04;;;;;;;0.70;0.70;;;18.10;84.60;;;;;;5003779;28;20152;-93
2023/04/30 08:28:30;;;;;;;1.00;1.00;;;18.10;84.60;;;;;;5002230;28;20038;-92
2023/04/30 08:30:56;;;;;;;1.20;1.10;;;18.20;84.60;;;;;;5003736;28;20530;-92
2023/04/30 08:33:21;;;;;;;1.10;1.10;;;18.20;84.60;;;;;;4990034;28;20058;-93
2023/04/30 08:35:47;;;;;;;0.90;0.90;;;18.20;84.60;;;;;;5011941;28;20124;-92
2023/04/30 08:38:12;;;;;;;1.00;1.00;;;18.10;84.60;;;;;;5009282;28;20046;-92
2023/04/30 08:40:38;;;;;;;1.00;1.00;;;18.20;84.70;;;;;;5000319;28;20031;-92
2023/04/30 08:43:05;;;;;;;0.82;0.82;;;18.10;84.60;;;;;;4956518;28;20129;-92
2023/04/30 08:45:35;;;;;;;0.93;0.93;;;18.20;84.80;;;;;;4989809;28;20408;-92
2023/04/30 08:48:03;;;;;;;1.10;1.10;;;18.20;84.80;;;;;;4987817;28;20100;-93
2023/04/30 08:50:29;;;;;;;0.93;0.93;;;18.20;84.80;;;;;;4987990;28;20034;-92
2023/04/30 08:52:55;;;;;;;0.90;0.90;;;18.20;84.40;;;;;;4987700;28;20420;-92
2023/04/30 08:55:20;;;;;;;1.23;1.23;;;18.20;84.50;;;;;;4954229;28;20484;-93
2023/04/30 08:57:46;;;;;;;1.33;1.33;;;18.20;84.30;;;;;;4979373;28;20577;-92
2023/04/30 09:00:12;;;;;;;1.10;1.10;;;18.20;84.50;;;;;;4994522;28;20505;-93
2023/04/30 09:02:41;;;;;;;1.10;1.10;;;18.20;84.50;;;;;;4992462;28;20046;-86
2023/04/30 09:05:10;;;;;;;1.05;1.05;;;18.20;84.50;;;;;;4993313;28;20136;-92
2023/04/30 09:07:35;;;;;;;1.10;1.10;;;18.30;84.40;;;;;;4974093;28;20117;-91
2023/04/30 09:10:02;;;;;;;1.00;1.00;;;18.30;84.40;;;;;;4973177;28;20106;-92
2023/04/30 09:12:28;;;;;;;1.20;1.20;;;18.20;84.40;;;;;;4991399;28;20027;-93
2023/04/30 09:14:58;;;;;;;1.13;1.13;;;18.30;84.50;;;;;;5000401;28;20042;-92
2023/04/30 09:17:24;;;;;;;1.10;1.10;;;18.30;84.60;;;;;;4995979;28;20034;-92
2023/04/30 09:19:52;;;;;;;1.00;1.00;;;18.30;84.60;;;;;;5002947;28;20050;-92
2023/04/30 09:22:22;;;;;;;0.93;0.93;;;18.30;84.50;;;;;;4985823;28;20126;-92
2023/04/30 09:24:49;;;;;;;1.10;1.10;;;18.30;84.50;;;;;;4975503;28;20121;-92
2023/04/30 09:27:20;;;;;;;1.00;1.00;;;18.30;84.70;;;;;;4987761;28;20046;-92
2023/04/30 09:29:45;;;;;;;0.90;0.90;;;18.30;84.80;;;;;;4989670;28;20058;-92
2023/04/30 09:32:11;;;;;;;1.13;1.13;;;18.20;84.70;;;;;;4991881;28;20065;-91
2023/04/30 09:34:37;;;;;;;0.95;0.95;;;18.30;84.80;;;;;;5013278;28;20104;-93
2023/04/30 09:37:03;;;;;;;1.00;1.00;;;18.20;84.70;;;;;;4996091;28;20050;-92
2023/04/30 09:39:28;;;;;;;1.00;1.00;;;18.30;84.70;;;;;;4993297;28;20034;-92
2023/04/30 09:42:06;;;;;;;1.10;1.10;;;18.30;84.60;;;;;;5021887;28;20046;-93
2023/04/30 09:44:36;;;;;;;1.15;1.15;;;18.30;84.70;;;;;;4997166;28;20091;-93
2023/04/30 09:47:02;;;;;;;1.08;1.08;;;18.30;84.80;;;;;;5009676;28;20057;-93
2023/04/30 09:49:27;;;;;;;1.05;1.05;;;18.20;84.70;;;;;;4990071;28;20412;-93
2023/04/30 09:51:57;;;;;;;1.20;1.20;;;18.30;84.80;;;;;;5010324;28;20046;-92
2023/04/30 09:54:25;;;;;;;1.20;1.20;;;18.30;84.80;;;;;;5011968;28;20062;-92
2023/04/30 09:56:52;;;;;;;0.90;0.90;;;18.20;84.70;;;;;;5009113;28;20124;-93
2023/04/30 09:59:19;;;;;;;1.00;1.00;;;18.20;84.60;;;;;;4997865;28;20038;-93
2023/04/30 10:01:45;;;;;;;1.13;1.13;;;18.30;84.80;;;;;;4972436;28;20116;-93
2023/04/30 10:04:11;;;;;;;1.20;1.20;;;18.30;84.70;;;;;;4984691;28;20050;-93
2023/04/30 10:06:36;;;;;;;1.10;1.10;;;18.30;84.70;;;;;;5010210;28;20038;-92
2023/04/30 10:09:02;;;;;;;1.20;1.20;;;18.30;84.70;;;;;;4968294;28;20499;-92
2023/04/30 10:11:27;;;;;;;0.90;0.90;;;18.30;84.70;;;;;;4973799;28;20053;-93
2023/04/30 10:14:00;;;;;;;1.05;1.05;;;18.30;84.80;;;;;;4989932;28;20042;-92
2023/04/30 10:16:33;;;;;;;0.90;0.90;;;18.30;84.80;;;;;;5001157;28;20072;-93
2023/04/30 10:19:02;;;;;;;1.00;1.00;;;18.30;84.80;;;;;;5008455;28;20050;-92
2023/04/30 10:21:28;;;;;;;1.10;1.10;;;18.30;84.80;;;;;;4996780;28;20119;-92
2023/04/30 10:23:54;;;;;;;1.30;1.30;;;18.30;84.90;;;;;;5001320;28;20400;-93
2023/04/30 10:26:19;;;;;;;1.00;1.00;;;18.30;84.80;;;;;;4997959;28;20046;-93
2023/04/30 10:28:45;;;;;;;1.02;1.02;;;18.30;84.90;;;;;;4988073;28;20058;-92
2023/04/30 10:31:11;;;;;;;1.10;1.10;;;18.30;84.80;;;;;;4998328;28;20038;-93
2023/04/30 10:33:53;;;;;;;0.98;0.98;;;18.30;84.80;;;;;;5002113;28;20043;-93
2023/04/30 10:36:41;;;;;;;1.10;1.10;;;18.30;85.60;;;;;;4994592;28;20041;-92
2023/04/30 10:39:06;;;;;;;1.00;0.90;;;18.30;84.80;;;;;;4991374;28;20133;-93
2023/04/30 10:41:32;;;;;;;1.08;1.08;;;18.30;84.80;;;;;;4974907;28;20078;-93
2023/04/30 10:44:00;;;;;;;1.10;1.10;;;18.30;84.80;;;;;;5012382;28;20124;-93
2023/04/30 10:46:27;;;;;;;1.10;1.10;;;18.30;84.80;;;;;;4969522;28;20062;-93
2023/04/30 10:48:53;;;;;;;1.10;1.10;;;18.30;85.60;;;;;;5005478;28;20111;-93
2023/04/30 10:51:20;;;;;;;1.50;1.40;;;18.30;84.90;;;;;;4987864;28;20081;-93
2023/04/30 10:53:48;;;;;;;0.90;0.90;;;18.30;84.80;;;;;;4986706;28;20125;-92
2023/04/30 10:56:13;;;;;;;1.00;1.00;;;18.30;84.80;;;;;;4968574;28;20069;-94
2023/04/30 10:58:39;;;;;;;1.08;1.08;;;18.30;84.80;;;;;;4989447;28;20095;-94
2023/04/30 11:01:11;;;;;;;1.40;1.30;;;18.30;84.70;;;;;;4986588;28;20564;-93
2023/04/30 11:03:37;;;;;;;1.10;1.10;;;18.30;84.70;;;;;;4968097;28;20531;-93
2023/04/30 11:06:12;;;;;;;1.30;1.30;;;18.30;84.70;;;;;;4989533;28;20512;-92
2023/04/30 11:08:38;;;;;;;0.95;0.95;;;18.30;84.60;;;;;;4988441;28;20043;-94
2023/04/30 11:11:04;;;;;;;1.00;1.00;;;18.30;84.70;;;;;;4986820;28;20428;-93
2023/04/30 11:13:43;;;;;;;1.00;1.00;;;18.40;84.70;;;;;;5002335;28;20046;-92
2023/04/30 11:16:09;;;;;;;1.13;1.13;;;18.40;84.60;;;;;;4982794;28;20053;-92
2023/04/30 11:18:43;;;;;;;1.00;1.00;;;18.40;85.30;;;;;;4988732;28;20046;-93
2023/04/30 11:21:09;;;;;;;0.80;0.80;;;18.40;84.60;;;;;;4985123;28;20050;-92
2023/04/30 11:23:35;;;;;;;0.85;0.85;;;18.40;84.60;;;;;;4988058;28;20038;-94
2023/04/30 11:26:01;;;;;;;1.00;1.00;;;18.40;84.60;;;;;;4985805;28;20093;-93
2023/04/30 11:28:27;;;;;;;1.15;1.15;;;18.40;84.60;;;;;;5000145;28;20039;-91
2023/04/30 11:30:54;;;;;;;1.10;1.10;;;18.40;84.60;;;;;;4984154;28;20074;-92
2023/04/30 11:33:21;;;;;;;1.02;1.02;;;18.40;84.60;;;;;;4988093;28;20100;-93
2023/04/30 11:35:50;;;;;;;0.85;0.85;;;18.40;84.70;;;;;;4986185;28;20054;-93
2023/04/30 11:38:16;;;;;;;0.90;0.90;;;18.40;84.60;;;;;;4985946;28;20062;-93
2023/04/30 11:40:42;;;;;;;1.00;1.00;;;18.40;84.60;;;;;;4988375;28;20065;-93
2023/04/30 11:43:07;;;;;;;0.95;0.95;;;18.40;84.60;;;;;;4970500;28;20489;-92
2023/04/30 11:45:33;;;;;;;1.17;1.17;;;18.40;84.60;;;;;;4981293;28;20069;-93
2023/04/30 11:47:59;;;;;;;0.95;0.95;;;18.40;84.60;;;;;;4986549;28;20049;-93
2023/04/30 11:50:27;;;;;;;1.10;1.10;;;18.40;84.60;;;;;;4984259;28;20042;-92
2023/04/30 11:52:54;;;;;;;1.10;1.10;;;18.40;84.60;;;;;;4981247;28;20041;-92
2023/04/30 11:55:21;;;;;;;1.00;1.00;;;18.40;84.50;;;;;;4997598;28;20053;-93
2023/04/30 11:57:48;;;;;;;1.02;1.02;;;18.40;84.50;;;;;;4986679;28;20042;-93
2023/04/30 12:00:28;;;;;;;1.05;1.05;;;18.50;84.60;;;;;;4988929;28;20050;-92
2023/04/30 12:02:54;;;;;;;0.90;0.90;;;18.40;84.60;;;;;;4983843;28;20051;-90
2023/04/30 12:05:20;;;;;;;0.90;0.90;;;18.40;85.30;;;;;;4987547;28;20054;-94
2023/04/30 12:07:48;;;;;;;1.08;1.08;;;18.40;84.60;;;;;;4984271;28;20390;-93
2023/04/30 12:10:13;;;;;;;1.10;1.10;;;18.40;84.60;;;;;;4985036;28;20069;-93
2023/04/30 12:12:39;;;;;;;0.68;0.68;;;18.40;84.70;;;;;;4987307;28;20125;-93
2023/04/30 12:15:12;;;;;;;0.82;0.82;;;18.40;84.70;;;;;;4987070;28;20054;-92
2023/04/30 12:17:38;;;;;;;0.95;0.95;;;18.40;84.70;;;;;;4982354;28;20038;-94
2023/04/30 12:20:04;;;;;;;0.80;0.80;;;18.50;84.80;;;;;;4986348;28;20072;-93
2023/04/30 12:22:29;;;;;;;0.88;0.88;;;18.40;84.70;;;;;;4986085;28;20058;-93
2023/04/30 12:24:55;;;;;;;1.00;1.00;;;18.50;84.80;;;;;;5002829;28;20401;-90
2023/04/30 12:27:21;;;;;;;1.13;1.13;;;18.50;84.80;;;;;;4988585;28;20046;-93
2023/04/30 12:29:48;;;;;;;0.90;0.90;;;18.50;84.70;;;;;;4987674;28;20049;-93
2023/04/30 12:32:17;;;;;;;0.95;0.95;;;18.50;84.60;;;;;;4988543;28;20037;-93
2023/04/30 12:34:43;;;;;;;1.20;1.20;;;18.50;84.70;;;;;;4988510;28;20046;-92
2023/04/30 12:37:09;;;;;;;1.05;1.05;;;18.50;85.50;;;;;;4987069;28;20054;-92
2023/04/30 12:39:35;;;;;;;0.90;0.90;;;18.40;84.70;;;;;;4981741;28;20092;-93
2023/04/30 12:42:02;;;;;;;1.05;1.05;;;18.50;84.80;;;;;;4982267;28;20505;-93
2023/04/30 12:44:28;;;;;;;0.80;0.80;;;18.50;84.80;;;;;;4985379;28;20062;-91
2023/04/30 12:46:56;;;;;;;0.90;0.90;;;18.50;84.70;;;;;;4988492;28;20077;-92